EDT,Max TemperatureF,Mean TemperatureF,Min TemperatureF,Max Dew PointF,MeanDew PointF,Min DewpointF,Max Humidity, Mean Humidity, Min Humidity, Max Sea Level PressureIn, Mean Sea Level PressureIn, Min Sea Level PressureIn, Max VisibilityMiles, Mean VisibilityMiles, Min VisibilityMiles, Max Wind SpeedMPH, Mean Wind SpeedMPH, Max Gust SpeedMPH,PrecipitationIn, CloudCover, Events, WindDirDegrees
2013-4-1,71,62,51,57,48,39,100,69,35,29.96,29.83,29.76,10,10,7,16,7,20,0.02,3,Rain,258
2013-4-2,57,47,37,37,29,21,87,51,25,30.15,30.09,29.98,10,10,10,16,5,22,0.00,1,,304
2013-4-3,57,45,33,37,29,19,93,56,23,30.38,30.24,30.14,10,10,10,12,3,22,0.00,2,,353
2013-4-4,53,42,32,41,31,25,100,66,35,30.41,30.29,29.97,10,10,5,15,4,20,0.43,2,Rain,58
2013-4-5,60,51,42,46,43,37,100,84,42,30.01,29.90,29.80,10,9,4,18,9,25,0.39,4,Rain,340
2013-4-6,55,45,35,39,35,30,100,68,41,30.34,30.24,30.01,10,10,10,18,4,24,0.00,0,,44
2013-4-7,71,52,33,52,42,34,100,69,35,30.33,30.22,30.12,10,10,7,14,3,20,0.00,0,,183
2013-4-8,78,66,53,59,54,52,100,69,39,30.17,30.11,30.05,10,10,10,16,8,22,0.00,0,,204
2013-4-9,84,73,62,61,58,55,94,64,37,30.16,30.10,30.04,10,10,10,14,8,18,0.00,0,,214
2013-4-10,89,76,64,63,61,57,88,61,36,30.07,30.00,29.91,10,10,10,15,9,21,0.00,0,,213
2013-4-11,84,74,64,66,61,57,88,67,42,29.97,29.90,29.83,10,10,10,20,11,25,0.00,0,,210
2013-4-12,80,74,68,72,68,64,94,86,69,29.85,29.73,29.62,10,10,2,20,11,29,0.36,2,Rain,189
2013-4-13,71,63,55,68,51,45,94,66,43,30.00,29.90,29.69,10,10,10,18,8,24,0.00,2,,176
2013-4-14,78,61,44,54,45,36,100,60,25,30.15,30.08,30.01,10,10,5,12,5,16,0.00,0,,113
2013-4-15,69,62,55,59,55,43,100,77,52,30.26,30.18,30.11,10,10,5,16,6,26,0.10,6,Rain-Thunderstorm,81
2013-4-16,75,66,57,63,59,55,100,79,61,30.32,30.26,30.22,10,10,7,13,5,,0.00,4,,149
2013-4-17,84,70,55,70,62,55,100,79,48,30.25,30.19,30.11,10,9,0,13,4,18,0.01,1,Fog-Rain,188
2013-4-18,78,70,62,64,61,59,100,75,51,30.25,30.18,30.09,10,10,7,15,6,22,0.05,2,Rain,151
2013-4-19,84,72,60,70,66,61,100,81,51,30.09,29.91,29.77,10,10,5,31,10,38,0.29,3,Rain,183
2013-4-20,66,56,46,66,49,36,100,79,44,30.30,30.06,29.82,10,10,10,15,6,31,0.41,3,Rain,290
2013-4-21,55,48,41,46,38,34,100,66,47,30.56,30.49,30.30,10,10,7,20,7,26,0.00,0,,44
2013-4-22,57,48,39,50,45,36,100,85,72,30.52,30.39,30.28,10,9,3,23,10,32,0.02,5,Rain,30
2013-4-23,60,52,44,52,50,45,100,90,63,30.28,30.21,30.14,10,8,2,16,10,24,0.01,6,,16
2013-4-24,77,60,42,61,53,43,100,78,47,30.17,30.08,29.96,10,8,0,18,5,25,0.00,2,Fog,193
2013-4-25,64,54,44,61,47,37,100,68,42,30.32,30.20,30.02,10,10,10,15,7,22,0.00,2,,33
2013-4-26,69,54,39,48,41,37,100,65,33,30.43,30.38,30.30,10,10,7,10,2,18,0.00,0,,52
2013-4-27,71,56,42,48,43,37,100,63,31,30.42,30.37,30.32,10,10,10,9,2,,0.00,0,,81
2013-4-28,69,56,42,55,48,41,100,75,40,30.33,30.25,30.15,10,10,10,12,3,16,0.04,2,Rain,101
2013-4-29,68,62,57,64,61,55,100,98,88,30.16,30.07,30.00,10,8,0,10,3,16,0.80,7,Fog-Rain,149
2013-4-30,69,64,59,63,60,59,100,94,68,30.18,30.11,30.03,10,6,0,12,4,17,0.00,8,Fog-Rain,13